Terminal Aerodrome Forecast
Issued by NWS

Home | Current Version | Previous Version | Graphics & Text | Print | Product List | Glossary Off
Versions: 1 2 3 4 5 6 7 8 9 10 11 12 13 14 15 16 17 18

000
FTUS43 KDDC 192339
TAFGCK
TAF
KGCK 192339Z 2000/2024 19013G20KT P6SM SCT250
     FM200500 21009KT P6SM OVC110
     FM201300 31013KT P6SM SCT200
     FM201500 33013G21KT P6SM FEW200=

USA.gov is the U.S. government's official web portal to all federal, state and local government web resources and services.